Penfield, Pennsylvania
Current Conditions -  °F | °C
As of 4:54 AM on Friday 24 Oct 2014 (Local Time) from KFIG Reporting Station
Clear Clear  
Wind Chill: 46°   Ceiling: Unl
Heat Index: 46°   Visibility: 10mi
Dew Point: 40°   Wind: 3mph
Humidity: 79%   Direction: 250°WSW
Pressure: 30.03"   Gusts: NA
Location:  41.21°N, 78.58°W
Report Text: KFIG 240854Z AUTO 25003KT 10SM CLR 08/04 A3003 RMK AO2 SLP169 T00780044 53012
Loading
Personal Weather Stations






























Interactive Weather Map
Tropical Storm Tracking
New forecast layout! Learn more

10-Day Weather Forecast

Advertisements
Track Severe Weather on mobile